La Marque, Texas
Current Conditions -  °F | °C
As of 4:52 AM on Friday 24 Oct 2014 (Local Time) from KGLS Reporting Station
Clear Clear  
Wind Chill: 17°   Ceiling: Unl
Heat Index: 17°   Visibility: 10mi
Dew Point: 15°   Wind: 9mph
Humidity: 87%   Direction: 30°NNE
Pressure: 30.11"   Gusts: NA
Location:  29.37°N, 94.97°W
Report Text: KGLS 240952Z AUTO 03008KT 10SM CLR 17/15 A3011 RMK AO2 SLP195 T01720150
Loading
Personal Weather Stations






























Interactive Weather Map
Tropical Storm Tracking
New forecast layout! Learn more

10-Day Weather Forecast

Advertisements
Track Severe Weather on mobile